RYR65RY LDSP-EGCC
Flight info
| Callsign | RYR65RY |
|---|---|
| Flight time | N/A |
| Altitude | 38000 |
| Route | UNIPA DCT KOTOR DCT GORPA DCT KFT DCT SIMBA DCT MOOCE L604 SULUS DCT GASKA DCT MASEK DCT ARPEG DCT VELED DCT GALSO Q63 ERING L179 LAM UN57 WELIN T420 ELVOS |
| Aircraft | B738/M-SDE2E3FGHIRWXY/LB1 |
Departure
| Time | 2026-05-07 08:45 |
|---|---|
| Airport | Split Saint Jerome Airport (LDSP) |
Arrival
| Time | N/A |
|---|---|
| Airport | Manchester Airport (EGCC) |
| Time | Latitude | Longitude | Altitude | Speed | Heading |
|---|---|---|---|---|---|
| 2026-05-07 08:24 | 43.53729 | 16.29873 | 67 ft | 0 kts | 115° |
| 2026-05-07 08:40 | 43.53731 | 16.29878 | 67 ft | 1 kts | 67° |
| 2026-05-07 08:40 | 43.53743 | 16.29877 | 57 ft | 4 kts | 347° |
| 2026-05-07 08:40 | 43.53784 | 16.29861 | 62 ft | 7 kts | 329° |
| 2026-05-07 08:41 | 43.53784 | 16.29830 | 62 ft | 3 kts | 224° |
| 2026-05-07 08:41 | 43.53749 | 16.29775 | 64 ft | 11 kts | 231° |
| 2026-05-07 08:41 | 43.53702 | 16.29689 | 64 ft | 12 kts | 240° |
| 2026-05-07 08:41 | 43.53695 | 16.29575 | 68 ft | 12 kts | 279° |
| 2026-05-07 08:42 | 43.53692 | 16.29460 | 78 ft | 12 kts | 255° |
| 2026-05-07 08:42 | 43.53652 | 16.29358 | 82 ft | 12 kts | 232° |
| 2026-05-07 08:42 | 43.53597 | 16.29259 | 79 ft | 15 kts | 232° |
| 2026-05-07 08:42 | 43.53519 | 16.29118 | 75 ft | 21 kts | 233° |
| 2026-05-07 08:43 | 43.53429 | 16.28955 | 71 ft | 22 kts | 233° |
| 2026-05-07 08:43 | 43.53340 | 16.28793 | 82 ft | 21 kts | 232° |
| 2026-05-07 08:43 | 43.53259 | 16.28654 | 76 ft | 13 kts | 218° |
| 2026-05-07 08:43 | 43.53193 | 16.28603 | 73 ft | 8 kts | 261° |
| 2026-05-07 08:44 | 43.53231 | 16.28599 | 72 ft | 8 kts | 47° |
| 2026-05-07 08:44 | 43.53263 | 16.28654 | 76 ft | 7 kts | 52° |
| 2026-05-07 08:44 | 43.53323 | 16.28764 | 81 ft | 37 kts | 53° |
| 2026-05-07 08:44 | 43.53624 | 16.29308 | 80 ft | 103 kts | 52° |
| 2026-05-07 08:45 | 43.54183 | 16.30313 | 85 ft | 157 kts | 53° |
| 2026-05-07 08:45 | 43.54861 | 16.31557 | 649 ft | 168 kts | 54° |
| 2026-05-07 08:45 | 43.55259 | 16.33104 | 1230 ft | 177 kts | 94° |
| 2026-05-07 08:45 | 43.54803 | 16.34677 | 1939 ft | 180 kts | 132° |
| 2026-05-07 08:46 | 43.53799 | 16.35641 | 2811 ft | 177 kts | 149° |
| 2026-05-07 08:46 | 43.52724 | 16.36478 | 3527 ft | 182 kts | 151° |
| 2026-05-07 08:46 | 43.51699 | 16.37488 | 4087 ft | 185 kts | 129° |
| 2026-05-07 08:46 | 43.51083 | 16.39043 | 4625 ft | 185 kts | 129° |
| 2026-05-07 08:47 | 43.50021 | 16.39923 | 5135 ft | 182 kts | 168° |
| 2026-05-07 08:47 | 43.48786 | 16.40433 | 5658 ft | 187 kts | 159° |
| 2026-05-07 08:47 | 43.47629 | 16.41165 | 6374 ft | 184 kts | 158° |
| 2026-05-07 08:47 | 43.46386 | 16.41350 | 6963 ft | 186 kts | 199° |
| 2026-05-07 08:48 | 43.45220 | 16.40510 | 7441 ft | 194 kts | 212° |
| 2026-05-07 08:48 | 43.44318 | 16.39124 | 8062 ft | 195 kts | 231° |
| 2026-05-07 08:48 | 43.43506 | 16.37610 | 8547 ft | 206 kts | 231° |
| 2026-05-07 08:48 | 43.42803 | 16.35828 | 8933 ft | 221 kts | 255° |
| 2026-05-07 08:49 | 43.42918 | 16.33683 | 9364 ft | 235 kts | 287° |
| 2026-05-07 08:49 | 43.43881 | 16.31751 | 9489 ft | 261 kts | 319° |
| 2026-05-07 08:49 | 43.45535 | 16.30520 | 9664 ft | 283 kts | 338° |
| 2026-05-07 08:49 | 43.47485 | 16.29651 | 9829 ft | 307 kts | 342° |
| 2026-05-07 08:50 | 43.49616 | 16.28840 | 10016 ft | 329 kts | 343° |
| 2026-05-07 08:50 | 43.51900 | 16.28000 | 10171 ft | 350 kts | 343° |
| 2026-05-07 08:50 | 43.54315 | 16.27105 | 10318 ft | 369 kts | 343° |
| 2026-05-07 08:50 | 43.56852 | 16.26147 | 10541 ft | 384 kts | 343° |
| 2026-05-07 08:51 | 43.59388 | 16.25175 | 11212 ft | 385 kts | 342° |
| 2026-05-07 08:51 | 43.61970 | 16.24172 | 11927 ft | 385 kts | 342° |
| 2026-05-07 08:51 | 43.64564 | 16.23155 | 12504 ft | 390 kts | 342° |
| 2026-05-07 08:51 | 43.67186 | 16.22119 | 13132 ft | 394 kts | 342° |
| 2026-05-07 08:52 | 43.69825 | 16.21072 | 13820 ft | 395 kts | 342° |
| 2026-05-07 08:52 | 43.72477 | 16.20016 | 14412 ft | 399 kts | 342° |
| 2026-05-07 08:52 | 43.75156 | 16.18947 | 15013 ft | 403 kts | 341° |
| 2026-05-07 08:52 | 43.77864 | 16.17866 | 15546 ft | 408 kts | 341° |
| 2026-05-07 08:53 | 43.80573 | 16.16782 | 16129 ft | 412 kts | 341° |
| 2026-05-07 08:53 | 43.83334 | 16.15678 | 16766 ft | 415 kts | 341° |
| 2026-05-07 08:53 | 43.86117 | 16.14563 | 17308 ft | 419 kts | 341° |
| 2026-05-07 08:53 | 43.88939 | 16.13432 | 17783 ft | 424 kts | 341° |
| 2026-05-07 08:54 | 43.91786 | 16.12290 | 18322 ft | 428 kts | 341° |
| 2026-05-07 08:54 | 43.94660 | 16.11136 | 18815 ft | 431 kts | 341° |
| 2026-05-07 08:54 | 43.97542 | 16.09978 | 19338 ft | 432 kts | 341° |
| 2026-05-07 08:54 | 44.00436 | 16.08813 | 19821 ft | 434 kts | 341° |
| 2026-05-07 08:55 | 44.03353 | 16.07639 | 20273 ft | 438 kts | 341° |
| 2026-05-07 08:55 | 44.06253 | 16.06469 | 20674 ft | 442 kts | 340° |